Time;durP1;ratioP1;P1;durP2;ratioP2;P2;SDS_P1;SDS_P2;PMS_P1;PMS_P2;Temp;Humidity;BMP_temperature;BMP_pressure;BME280_temperature;BME280_humidity;BME280_pressure;Samples;Min_cycle;Max_cycle;Signal;HPM_P1;HPM_P2
2022/04/12 00:00:15;;;;;;;2.67;1.05;;;10.30;99.90;;;;;;5103500;28;20476;-57
2022/04/12 00:02:41;;;;;;;2.33;1.10;;;10.30;99.90;;;;;;5116453;28;20459;-57
2022/04/12 00:05:11;;;;;;;1.88;1.00;;;10.20;99.90;;;;;;5116104;28;20523;-57
2022/04/12 00:07:39;;;;;;;1.95;1.20;;;10.20;99.90;;;;;;5113988;28;20432;-56
2022/04/12 00:10:07;;;;;;;2.00;1.10;;;10.10;99.90;;;;;;5103592;28;20420;-58
2022/04/12 00:12:35;;;;;;;1.85;1.10;;;10.10;99.90;;;;;;5116507;28;20515;-58
2022/04/12 00:15:02;;;;;;;1.80;1.10;;;10.10;99.90;;;;;;5096074;28;20406;-58
2022/04/12 00:20:13;;;;;;;2.60;1.30;;;10.00;99.90;;;;;;5112847;28;20498;-58
2022/04/12 00:22:41;;;;;;;2.70;0.90;;;9.90;99.90;;;;;;5114604;28;20526;-57
2022/04/12 00:25:10;;;;;;;3.80;1.50;;;9.70;99.90;;;;;;5115966;28;20422;-58
2022/04/12 00:27:38;;;;;;;2.40;1.20;;;9.70;99.90;;;;;;5115114;28;20467;-58
2022/04/12 00:30:06;;;;;;;2.08;1.30;;;9.70;99.90;;;;;;5113485;28;20460;-57
2022/04/12 00:32:33;;;;;;;1.50;1.00;;;9.70;99.90;;;;;;5111429;28;20439;-57
2022/04/12 00:35:00;;;;;;;2.80;1.00;;;9.70;99.90;;;;;;5114717;27;20795;-58
2022/04/12 00:37:27;;;;;;;1.60;1.00;;;9.70;99.90;;;;;;5114329;28;20475;-58
2022/04/12 00:39:56;;;;;;;2.80;1.20;;;9.80;99.90;;;;;;5113061;28;20507;-57
2022/04/12 00:42:23;;;;;;;2.10;1.30;;;9.80;1.00;;;;;;5114245;28;20789;-55
2022/04/12 00:44:50;;;;;;;2.00;1.20;;;9.70;1.00;;;;;;5115029;28;20504;-58
2022/04/12 00:47:17;;;;;;;2.50;1.00;;;9.70;1.00;;;;;;5114104;28;20444;-56
2022/04/12 00:49:44;;;;;;;2.60;1.10;;;9.70;1.00;;;;;;5114094;28;20518;-58
2022/04/12 00:52:12;;;;;;;1.70;1.00;;;9.80;1.00;;;;;;5114954;28;20424;-56
2022/04/12 00:54:40;;;;;;;2.35;1.20;;;9.80;1.00;;;;;;5115069;28;20430;-58
2022/04/12 00:57:08;;;;;;;1.90;1.20;;;9.80;99.90;;;;;;5114441;28;20532;-57
2022/04/12 00:59:36;;;;;;;1.40;1.00;;;9.80;99.90;;;;;;5114318;28;20743;-58
2022/04/12 01:02:04;;;;;;;2.97;1.15;;;9.70;1.00;;;;;;5115670;28;20463;-57
2022/04/12 01:04:32;;;;;;;1.85;1.15;;;9.70;1.00;;;;;;5114677;28;20503;-57
2022/04/12 01:07:00;;;;;;;1.90;1.10;;;9.70;1.00;;;;;;5112070;28;20531;-58
2022/04/12 01:09:27;;;;;;;1.60;1.00;;;9.70;1.00;;;;;;5114590;28;20420;-58
2022/04/12 01:11:55;;;;;;;2.28;1.10;;;9.70;1.00;;;;;;5114926;28;20423;-58
2022/04/12 01:14:25;;;;;;;2.25;1.00;;;9.70;1.00;;;;;;5114466;28;20428;-58
2022/04/12 01:16:53;;;;;;;1.80;1.10;;;9.70;1.00;;;;;;5114199;28;20539;-58
2022/04/12 01:19:20;;;;;;;1.88;1.10;;;9.70;1.00;;;;;;5114434;28;20515;-59
2022/04/12 01:21:52;;;;;;;1.73;1.00;;;9.60;1.00;;;;;;5114861;28;20511;-58
2022/04/12 01:24:21;;;;;;;3.10;1.10;;;9.50;1.00;;;;;;5114021;28;20945;-58
2022/04/12 01:26:47;;;;;;;2.10;1.20;;;9.50;1.00;;;;;;5113770;28;20475;-58
2022/04/12 01:29:15;;;;;;;1.52;1.00;;;9.40;1.00;;;;;;5115478;28;20413;-57
2022/04/12 01:31:42;;;;;;;2.00;1.10;;;9.40;1.00;;;;;;5115770;28;20459;-58
2022/04/12 01:34:08;;;;;;;2.10;1.20;;;9.40;1.00;;;;;;5112228;28;20532;-57
2022/04/12 01:36:35;;;;;;;2.28;1.10;;;9.40;1.00;;;;;;5115418;28;20466;-57
2022/04/12 01:39:03;;;;;;;2.20;1.10;;;9.30;1.00;;;;;;5111524;28;20903;-58
2022/04/12 01:41:31;;;;;;;1.60;1.00;;;9.30;7.30;;;;;;5110053;28;20416;-57
2022/04/12 01:43:58;;;;;;;2.97;1.20;;;9.30;19.00;;;;;;5107251;28;20481;-57
2022/04/12 01:46:25;;;;;;;2.10;1.20;;;9.30;99.50;;;;;;5109566;28;20807;-56
2022/04/12 01:48:52;;;;;;;3.10;1.05;;;9.30;79.60;;;;;;5109789;28;20392;-58
2022/04/12 01:51:19;;;;;;;2.40;1.10;;;9.30;28.60;;;;;;5108700;28;20436;-57
2022/04/12 01:53:46;;;;;;;1.70;1.13;;;9.20;1.00;;;;;;5110238;28;20809;-58
2022/04/12 01:56:13;;;;;;;2.45;1.10;;;9.20;1.00;;;;;;5115003;28;20863;-56
2022/04/12 01:58:42;;;;;;;1.70;1.00;;;9.20;1.00;;;;;;5115004;28;20492;-58
2022/04/12 02:01:09;;;;;;;1.43;0.90;;;9.20;1.00;;;;;;5112779;28;20474;-57
2022/04/12 02:03:36;;;;;;;1.50;1.00;;;9.20;1.00;;;;;;5114718;28;20507;-56
2022/04/12 02:06:03;;;;;;;1.98;1.10;;;9.20;1.00;;;;;;5114919;28;20471;-58
2022/04/12 02:08:30;;;;;;;1.70;1.00;;;9.20;1.00;;;;;;5115312;28;20508;-57
2022/04/12 02:10:57;;;;;;;2.10;1.00;;;9.20;1.00;;;;;;5111392;28;20930;-56
2022/04/12 02:13:24;;;;;;;2.83;1.00;;;9.30;1.00;;;;;;5093109;28;20505;-58
2022/04/12 02:15:52;;;;;;;2.70;1.30;;;9.20;1.00;;;;;;5094077;28;20877;-58
2022/04/12 02:18:19;;;;;;;1.50;1.00;;;9.10;31.70;;;;;;5094611;28;20505;-58
2022/04/12 02:20:46;;;;;;;1.50;1.00;;;9.20;1.00;;;;;;5102410;28;20738;-58
2022/04/12 02:23:13;;;;;;;2.00;1.20;;;9.20;1.00;;;;;;5114395;28;20432;-58
2022/04/12 02:25:40;;;;;;;1.85;1.10;;;9.20;1.00;;;;;;5114875;28;20495;-58
2022/04/12 02:28:07;;;;;;;2.20;1.30;;;9.30;1.00;;;;;;5114773;28;20860;-58
2022/04/12 02:30:34;;;;;;;2.00;1.00;;;9.20;1.00;;;;;;5113768;28;20515;-56
2022/04/12 02:33:02;;;;;;;1.45;1.00;;;9.00;1.00;;;;;;5118645;28;20463;-57
2022/04/12 02:35:29;;;;;;;2.00;1.10;;;8.90;46.30;;;;;;5118665;28;20871;-57
2022/04/12 02:37:56;;;;;;;1.92;1.10;;;8.90;99.90;;;;;;5116955;28;21237;-58
2022/04/12 02:40:23;;;;;;;3.60;1.20;;;8.90;99.90;;;;;;5116803;28;20879;-58
2022/04/12 02:42:50;;;;;;;1.83;1.13;;;8.90;1.00;;;;;;5118921;28;20531;-57
2022/04/12 02:45:17;;;;;;;2.20;1.10;;;8.90;99.90;;;;;;5118234;28;20935;-58
2022/04/12 02:47:43;;;;;;;2.33;1.10;;;8.90;99.90;;;;;;5116492;28;20436;-57
2022/04/12 02:50:12;;;;;;;1.48;1.00;;;8.90;99.90;;;;;;5113465;28;20460;-57
2022/04/12 02:52:39;;;;;;;1.80;1.00;;;9.00;99.90;;;;;;5115084;28;20503;-58
2022/04/12 02:55:06;;;;;;;3.50;1.10;;;8.90;99.90;;;;;;5114724;28;20468;-56
2022/04/12 02:57:33;;;;;;;2.67;1.10;;;8.90;99.90;;;;;;5113751;28;20533;-57
2022/04/12 03:00:00;;;;;;;2.75;1.00;;;8.80;99.90;;;;;;5114487;28;20522;-58
2022/04/12 03:02:27;;;;;;;1.55;1.10;;;8.80;1.00;;;;;;5115743;28;20455;-58
2022/04/12 03:04:54;;;;;;;2.25;1.00;;;8.80;1.00;;;;;;5115859;28;20532;-58
2022/04/12 03:07:22;;;;;;;2.30;1.20;;;8.80;1.00;;;;;;5113549;27;20436;-58
2022/04/12 03:09:49;;;;;;;3.10;1.10;;;8.70;1.00;;;;;;5116328;28;20852;-55
2022/04/12 03:12:16;;;;;;;1.52;1.10;;;8.70;1.00;;;;;;5117859;28;20515;-58
2022/04/12 03:14:43;;;;;;;2.22;1.10;;;8.70;1.00;;;;;;5117986;28;20510;-56
2022/04/12 03:17:10;;;;;;;1.67;1.25;;;8.50;1.00;;;;;;5114124;28;20751;-55
2022/04/12 03:19:37;;;;;;;1.60;1.20;;;8.50;25.90;;;;;;5117935;28;20428;-52
2022/04/12 03:22:04;;;;;;;1.70;1.10;;;8.50;99.90;;;;;;5117863;28;20452;-53
2022/04/12 03:24:33;;;;;;;2.70;1.20;;;8.40;99.90;;;;;;5117745;28;20903;-55
2022/04/12 03:27:00;;;;;;;2.25;1.15;;;8.40;99.90;;;;;;5114274;28;20436;-56
2022/04/12 03:29:27;;;;;;;1.73;1.10;;;8.40;99.90;;;;;;5117500;28;20502;-55
2022/04/12 03:31:54;;;;;;;2.58;1.15;;;8.40;99.90;;;;;;5117389;28;20424;-55
2022/04/12 03:34:21;;;;;;;1.80;1.20;;;8.40;1.00;;;;;;5116409;28;20487;-52
2022/04/12 03:36:48;;;;;;;1.50;1.05;;;8.40;99.90;;;;;;5115554;28;20464;-52
2022/04/12 03:39:17;;;;;;;1.92;1.10;;;8.40;1.00;;;;;;5117699;28;20430;-56
2022/04/12 03:41:46;;;;;;;2.30;1.40;;;8.40;1.00;;;;;;5116600;28;20493;-57
2022/04/12 03:44:13;;;;;;;1.73;1.00;;;8.40;1.00;;;;;;5115158;28;20440;-57
2022/04/12 03:46:40;;;;;;;2.20;1.20;;;8.40;31.90;;;;;;5117271;28;20427;-57
2022/04/12 03:49:07;;;;;;;3.00;1.20;;;8.40;1.00;;;;;;5117489;28;20507;-56
2022/04/12 03:51:35;;;;;;;2.60;1.30;;;8.40;1.00;;;;;;5117022;28;20532;-54
2022/04/12 03:54:02;;;;;;;1.90;1.10;;;8.40;1.00;;;;;;5113618;28;20482;-56
2022/04/12 03:56:29;;;;;;;1.85;1.10;;;8.40;1.00;;;;;;5116416;28;20847;-56
2022/04/12 03:58:58;;;;;;;2.90;1.20;;;8.40;1.00;;;;;;5117492;28;20790;-56
2022/04/12 04:01:28;;;;;;;1.50;1.10;;;8.40;99.90;;;;;;5116017;28;20420;-57
2022/04/12 04:03:55;;;;;;;2.20;1.10;;;8.40;99.90;;;;;;5115128;28;20428;-56
2022/04/12 04:06:22;;;;;;;2.33;1.30;;;8.40;98.30;;;;;;5116783;28;20518;-56
2022/04/12 04:08:49;;;;;;;2.90;1.30;;;8.50;1.00;;;;;;5116491;28;20528;-56
2022/04/12 04:11:16;;;;;;;2.97;1.15;;;8.50;99.90;;;;;;5113525;28;20462;-56
2022/04/12 04:13:43;;;;;;;2.38;1.25;;;8.40;99.90;;;;;;5114235;28;20464;-56
2022/04/12 04:16:11;;;;;;;2.67;1.25;;;8.40;99.90;;;;;;5116370;28;20762;-53
2022/04/12 04:18:38;;;;;;;2.17;1.20;;;8.30;1.00;;;;;;5116698;28;20747;-54
2022/04/12 04:21:05;;;;;;;2.40;1.50;;;8.30;1.00;;;;;;5113615;28;20464;-55
2022/04/12 04:23:32;;;;;;;3.10;1.40;;;8.40;29.60;;;;;;5115259;28;20432;-55
2022/04/12 04:25:59;;;;;;;2.50;1.40;;;8.40;1.00;;;;;;5115505;28;20456;-55
2022/04/12 04:28:29;;;;;;;4.72;1.40;;;8.40;1.00;;;;;;5114462;28;20503;-55
2022/04/12 04:30:57;;;;;;;2.30;1.40;;;8.40;1.00;;;;;;5113144;27;20715;-55
2022/04/12 04:33:25;;;;;;;1.88;1.10;;;8.40;1.00;;;;;;5114142;28;20863;-55
2022/04/12 04:35:52;;;;;;;1.73;1.10;;;8.40;99.90;;;;;;5115109;28;20879;-55
2022/04/12 04:38:19;;;;;;;1.70;1.20;;;8.30;99.90;;;;;;5113415;28;20515;-56
2022/04/12 04:40:45;;;;;;;1.83;1.10;;;8.30;1.00;;;;;;5112164;28;20872;-56
2022/04/12 04:43:12;;;;;;;2.35;1.30;;;8.30;1.00;;;;;;5114676;28;20480;-55
2022/04/12 04:45:39;;;;;;;2.10;1.20;;;8.30;1.00;;;;;;5115049;28;20886;-55
2022/04/12 04:48:07;;;;;;;3.03;1.30;;;8.30;1.00;;;;;;5113663;28;20432;-56
2022/04/12 04:50:35;;;;;;;1.98;1.30;;;8.20;1.00;;;;;;5113352;28;20534;-56
2022/04/12 04:53:04;;;;;;;2.38;1.38;;;8.20;99.90;;;;;;5108583;28;20590;-54
2022/04/12 04:55:35;;;;;;;1.83;1.20;;;8.30;99.90;;;;;;5113079;28;20494;-53
2022/04/12 04:58:02;;;;;;;3.20;1.40;;;8.30;25.20;;;;;;5112069;28;20471;-54
2022/04/12 05:00:31;;;;;;;1.85;1.20;;;8.30;1.00;;;;;;5112989;28;20856;-53
2022/04/12 05:02:59;;;;;;;2.20;1.20;;;8.30;1.00;;;;;;5109635;28;20423;-53
2022/04/12 05:05:27;;;;;;;1.70;1.20;;;8.30;1.00;;;;;;5112174;28;20420;-55
2022/04/12 05:07:56;;;;;;;3.78;1.20;;;8.30;1.00;;;;;;5113715;28;20884;-56
2022/04/12 05:10:24;;;;;;;1.83;1.30;;;8.30;1.00;;;;;;5113246;28;20503;-55
2022/04/12 05:12:51;;;;;;;2.80;1.20;;;8.40;1.00;;;;;;5111946;28;20504;-55
2022/04/12 05:15:18;;;;;;;2.57;1.20;;;8.40;1.00;;;;;;5115468;28;20511;-54
2022/04/12 05:17:50;;;;;;;1.90;1.40;;;8.40;1.00;;;;;;5111181;28;20523;-55
2022/04/12 05:20:18;;;;;;;2.40;1.27;;;8.30;1.00;;;;;;5110533;28;20428;-55
2022/04/12 05:22:45;;;;;;;2.60;1.23;;;8.30;99.90;;;;;;5106776;28;20444;-53
2022/04/12 05:25:13;;;;;;;2.13;1.50;;;8.20;5.80;;;;;;5107199;28;20432;-57
2022/04/12 05:27:40;;;;;;;2.92;1.40;;;8.10;30.00;;;;;;5104986;28;20432;-54
2022/04/12 05:30:09;;;;;;;2.60;1.30;;;8.10;1.00;;;;;;5104424;28;20819;-56
2022/04/12 05:32:36;;;;;;;2.00;1.40;;;8.10;1.00;;;;;;5105785;28;20523;-54
2022/04/12 05:35:04;;;;;;;4.50;1.40;;;8.10;35.60;;;;;;5105682;28;20668;-57
2022/04/12 05:37:31;;;;;;;2.60;1.30;;;8.00;99.90;;;;;;5108577;28;20436;-54
2022/04/12 05:39:58;;;;;;;3.93;1.40;;;8.00;99.90;;;;;;5102852;28;21119;-55
2022/04/12 05:42:26;;;;;;;3.78;1.90;;;8.10;99.90;;;;;;5106972;28;20432;-53
2022/04/12 05:44:53;;;;;;;2.80;1.40;;;8.10;99.90;;;;;;5100691;28;20443;-55
2022/04/12 05:47:20;;;;;;;2.03;1.40;;;8.10;99.90;;;;;;5101178;28;20760;-56
2022/04/12 05:49:47;;;;;;;3.65;1.30;;;8.20;42.30;;;;;;5100141;28;20514;-52
2022/04/12 05:52:13;;;;;;;2.10;1.40;;;8.20;1.00;;;;;;5099501;28;20691;-57
2022/04/12 05:54:40;;;;;;;2.85;1.50;;;8.20;99.90;;;;;;5099725;28;20515;-56
2022/04/12 05:57:07;;;;;;;2.72;1.52;;;8.40;99.90;;;;;;5101189;28;21026;-53
2022/04/12 05:59:35;;;;;;;2.13;1.35;;;8.40;1.00;;;;;;5107300;28;20456;-52
2022/04/12 06:02:02;;;;;;;2.45;1.52;;;8.40;1.00;;;;;;5104449;28;20436;-55
2022/04/12 06:04:29;;;;;;;3.58;1.90;;;8.50;1.00;;;;;;5106935;28;20510;-54
2022/04/12 06:06:56;;;;;;;2.67;1.58;;;8.60;1.00;;;;;;5109481;28;20535;-56
2022/04/12 06:09:23;;;;;;;2.20;1.45;;;8.60;99.90;;;;;;5109237;28;20432;-56
2022/04/12 06:11:49;;;;;;;2.25;1.40;;;8.60;99.90;;;;;;5111531;28;20435;-54
2022/04/12 06:14:16;;;;;;;2.20;1.40;;;8.70;99.90;;;;;;5107408;28;20471;-56
2022/04/12 06:16:44;;;;;;;4.30;1.80;;;8.80;96.00;;;;;;5112974;28;20531;-56
2022/04/12 06:19:11;;;;;;;2.30;1.63;;;8.80;57.30;;;;;;5116167;28;20432;-51
2022/04/12 06:21:38;;;;;;;2.20;1.60;;;8.80;99.90;;;;;;5116790;28;20481;-55
2022/04/12 06:24:06;;;;;;;2.90;1.75;;;8.80;99.90;;;;;;5116137;28;20519;-54
2022/04/12 06:26:33;;;;;;;2.67;1.40;;;8.90;99.90;;;;;;5107294;28;20532;-56
2022/04/12 06:28:59;;;;;;;3.60;1.38;;;9.00;99.90;;;;;;5112946;28;20807;-56
2022/04/12 06:31:26;;;;;;;3.03;1.50;;;9.10;1.00;;;;;;5113799;28;20530;-55
2022/04/12 06:33:54;;;;;;;3.10;1.50;;;9.20;1.00;;;;;;5109263;28;20804;-55
2022/04/12 06:36:21;;;;;;;2.13;1.50;;;9.30;1.00;;;;;;5112110;28;20478;-56
2022/04/12 06:38:48;;;;;;;3.13;1.50;;;9.40;1.00;;;;;;5114081;28;20436;-56
2022/04/12 06:41:15;;;;;;;2.10;1.23;;;9.50;1.00;;;;;;5108164;28;20515;-57
2022/04/12 06:43:42;;;;;;;2.45;1.20;;;9.60;1.00;;;;;;5107982;28;20520;-55
2022/04/12 06:46:09;;;;;;;1.70;1.30;;;9.60;1.00;;;;;;5096453;28;20520;-56
2022/04/12 06:48:36;;;;;;;2.40;1.30;;;9.70;1.00;;;;;;5109324;28;20526;-55
2022/04/12 06:51:04;;;;;;;2.10;1.20;;;9.80;99.90;;;;;;5112233;28;20471;-53
2022/04/12 06:53:31;;;;;;;2.20;1.20;;;10.00;99.90;;;;;;5111848;28;20793;-54
2022/04/12 06:55:58;;;;;;;2.30;1.20;;;10.10;99.90;;;;;;5113616;28;20803;-57
2022/04/12 06:58:25;;;;;;;2.47;1.40;;;10.20;99.90;;;;;;5112600;28;20463;-56
2022/04/12 07:00:52;;;;;;;2.80;1.20;;;10.40;99.90;;;;;;5110310;28;20526;-54
2022/04/12 07:03:18;;;;;;;3.42;1.30;;;10.50;99.90;;;;;;5112344;27;20524;-56
2022/04/12 07:05:49;;;;;;;2.30;1.20;;;10.50;99.90;;;;;;5113698;28;20507;-56
2022/04/12 07:08:17;;;;;;;4.15;1.30;;;10.50;70.70;;;;;;5110288;28;20432;-52
2022/04/12 07:10:45;;;;;;;2.10;1.27;;;10.60;13.50;;;;;;5111981;27;20428;-50
2022/04/12 07:13:11;;;;;;;2.40;1.80;;;10.70;1.00;;;;;;5112628;28;20460;-52
2022/04/12 07:15:39;;;;;;;2.50;1.60;;;10.70;1.00;;;;;;5113296;28;20463;-55
2022/04/12 07:18:06;;;;;;;2.10;1.50;;;10.90;1.00;;;;;;5112792;28;20758;-55
2022/04/12 07:20:33;;;;;;;2.20;1.20;;;11.00;1.00;;;;;;5113530;28;20476;-57
2022/04/12 07:23:00;;;;;;;2.30;1.30;;;11.20;1.00;;;;;;5113853;28;20455;-56
2022/04/12 07:25:28;;;;;;;1.70;1.23;;;11.30;1.00;;;;;;5111092;28;20432;-56
2022/04/12 07:27:55;;;;;;;2.80;1.20;;;11.30;1.00;;;;;;5112098;28;20466;-55
2022/04/12 07:30:22;;;;;;;1.40;1.00;;;11.40;1.00;;;;;;5112891;28;20432;-56
2022/04/12 07:32:49;;;;;;;1.55;1.00;;;11.40;1.00;;;;;;5109148;28;20479;-56
2022/04/12 07:35:16;;;;;;;1.70;1.10;;;11.40;1.00;;;;;;5113991;28;20535;-57
2022/04/12 07:37:43;;;;;;;2.65;1.10;;;11.40;1.00;;;;;;5111730;28;20528;-57
2022/04/12 07:40:11;;;;;;;4.60;1.20;;;11.60;1.00;;;;;;5113306;28;20424;-54
2022/04/12 07:42:39;;;;;;;3.80;1.10;;;11.60;1.00;;;;;;5103594;28;20526;-57
2022/04/12 07:45:06;;;;;;;2.30;1.20;;;11.70;1.00;;;;;;5113717;28;20519;-57
2022/04/12 07:47:35;;;;;;;1.83;1.10;;;11.80;1.00;;;;;;5112467;28;20520;-56
2022/04/12 07:50:03;;;;;;;2.50;1.10;;;11.80;1.00;;;;;;5113868;28;20420;-57
2022/04/12 07:52:30;;;;;;;1.45;1.05;;;12.00;1.00;;;;;;5111540;28;20699;-55
2022/04/12 07:54:56;;;;;;;2.20;1.05;;;12.10;1.00;;;;;;5111767;28;21063;-56
2022/04/12 07:57:23;;;;;;;3.90;1.90;;;12.20;1.00;;;;;;5109223;28;20493;-56
2022/04/12 07:59:51;;;;;;;4.00;2.83;;;12.30;1.00;;;;;;5111490;28;20459;-57
2022/04/12 08:02:18;;;;;;;3.30;1.60;;;12.40;1.00;;;;;;5109727;28;20598;-57
2022/04/12 08:04:45;;;;;;;2.53;1.20;;;12.60;1.00;;;;;;5111607;28;20438;-57
2022/04/12 08:07:12;;;;;;;1.60;1.05;;;12.80;1.00;;;;;;5113576;28;20452;-57
2022/04/12 08:09:39;;;;;;;2.55;1.00;;;12.90;1.00;;;;;;5113729;28;20495;-56
2022/04/12 08:12:07;;;;;;;2.13;1.10;;;13.00;1.00;;;;;;5113014;28;20862;-53
2022/04/12 08:14:34;;;;;;;2.40;1.10;;;13.00;1.00;;;;;;5109248;28;20800;-56
2022/04/12 08:17:02;;;;;;;3.70;1.10;;;13.00;1.00;;;;;;5110976;28;20808;-57
2022/04/12 08:19:29;;;;;;;6.45;1.40;;;13.10;1.00;;;;;;5113461;28;20416;-57
2022/04/12 08:21:56;;;;;;;3.00;1.40;;;13.20;1.00;;;;;;5112072;28;20501;-57
2022/04/12 08:24:23;;;;;;;2.60;1.23;;;13.30;1.00;;;;;;5110101;27;20467;-56
2022/04/12 08:26:50;;;;;;;1.70;1.20;;;13.50;1.00;;;;;;5110886;28;20424;-57
2022/04/12 08:29:17;;;;;;;2.80;1.30;;;13.70;1.00;;;;;;5112475;28;20794;-56
2022/04/12 08:31:44;;;;;;;4.00;1.10;;;13.90;1.00;;;;;;5110241;27;20540;-55
2022/04/12 08:34:13;;;;;;;4.30;1.10;;;14.00;1.00;;;;;;5110689;28;20420;-57
2022/04/12 08:36:40;;;;;;;3.10;1.17;;;14.20;1.00;;;;;;5111346;28;20467;-58
2022/04/12 08:39:07;;;;;;;2.50;1.20;;;14.40;1.00;;;;;;5112916;28;20499;-57
2022/04/12 08:41:36;;;;;;;2.20;1.10;;;14.60;1.00;;;;;;5110339;28;20490;-57
2022/04/12 08:44:04;;;;;;;2.40;1.00;;;14.90;1.00;;;;;;5108586;28;20428;-58
2022/04/12 08:46:30;;;;;;;3.00;1.10;;;14.90;1.00;;;;;;5103182;28;20732;-57
2022/04/12 08:48:58;;;;;;;1.60;1.00;;;15.00;1.00;;;;;;5112979;28;20452;-59
2022/04/12 08:51:28;;;;;;;1.95;1.00;;;15.20;1.00;;;;;;5112260;28;20485;-57
2022/04/12 08:53:57;;;;;;;2.20;1.00;;;15.40;1.00;;;;;;5112844;28;20434;-58
2022/04/12 08:56:24;;;;;;;2.00;1.00;;;15.60;1.00;;;;;;5098473;28;20434;-59
2022/04/12 08:58:51;;;;;;;2.55;1.00;;;15.80;1.00;;;;;;5110894;28;20769;-61
2022/04/12 09:01:18;;;;;;;1.60;0.82;;;15.90;1.00;;;;;;5111402;28;20451;-60
2022/04/12 09:03:46;;;;;;;1.30;0.80;;;16.10;1.00;;;;;;5114134;28;20451;-60
2022/04/12 09:06:14;;;;;;;2.15;0.90;;;16.00;1.00;;;;;;5113592;28;20823;-62
2022/04/12 09:08:42;;;;;;;1.30;0.88;;;16.10;1.00;;;;;;5112142;28;20466;-60
2022/04/12 09:11:09;;;;;;;1.70;1.00;;;16.10;1.00;;;;;;5110058;28;20424;-60
2022/04/12 09:13:36;;;;;;;1.50;0.90;;;16.30;1.00;;;;;;5114111;28;20444;-59
2022/04/12 09:16:09;;;;;;;1.90;0.90;;;16.30;1.00;;;;;;5113437;28;20688;-59
2022/04/12 09:18:38;;;;;;;1.20;0.70;;;16.20;1.00;;;;;;5112270;28;20452;-58
2022/04/12 09:21:13;;;;;;;1.35;0.80;;;16.30;1.00;;;;;;5110803;28;20936;-59
2022/04/12 09:23:44;;;;;;;1.30;0.95;;;16.40;1.00;;;;;;5110285;28;20478;-59
2022/04/12 09:26:17;;;;;;;1.50;1.00;;;16.50;1.00;;;;;;5110165;28;20649;-59
2022/04/12 09:28:45;;;;;;;1.83;0.90;;;16.70;1.00;;;;;;5110712;28;20420;-58
2022/04/12 09:31:13;;;;;;;1.70;0.90;;;16.90;1.00;;;;;;5110703;28;20408;-59
2022/04/12 09:33:40;;;;;;;2.10;1.10;;;17.30;1.00;;;;;;5110928;28;20511;-59
2022/04/12 09:36:07;;;;;;;1.10;0.80;;;17.30;1.00;;;;;;5109628;28;20736;-59
2022/04/12 09:38:35;;;;;;;1.70;0.80;;;17.40;1.00;;;;;;5109798;28;20471;-60
2022/04/12 09:41:18;;;;;;;6.05;0.70;;;17.40;1.00;;;;;;5111562;28;20859;-59
2022/04/12 09:44:05;;;;;;;1.35;0.80;;;17.50;1.00;;;;;;5113818;28;20420;-59
2022/04/12 09:46:33;;;;;;;1.50;0.70;;;17.70;1.00;;;;;;5114522;28;20439;-59
2022/04/12 09:49:00;;;;;;;1.00;0.70;;;18.10;1.00;;;;;;5112720;28;20850;-59
2022/04/12 09:51:27;;;;;;;2.80;0.70;;;18.20;1.00;;;;;;5114457;28;20416;-59
2022/04/12 09:53:55;;;;;;;4.95;2.53;;;18.40;1.00;;;;;;5115798;28;20426;-59
2022/04/12 09:56:25;;;;;;;5.55;3.28;;;18.50;1.00;;;;;;5115299;28;20519;-59
2022/04/12 09:58:54;;;;;;;1.10;0.60;;;18.50;1.00;;;;;;5115053;28;20454;-59
2022/04/12 10:01:22;;;;;;;1.98;0.80;;;18.40;1.00;;;;;;5114770;28;20492;-60
2022/04/12 10:03:51;;;;;;;1.42;0.60;;;18.70;1.00;;;;;;5114608;28;20507;-59
2022/04/12 10:06:20;;;;;;;1.20;0.50;;;18.80;1.00;;;;;;5112864;28;20427;-59
2022/04/12 10:08:51;;;;;;;1.00;0.60;;;18.60;1.00;;;;;;5113535;28;20427;-59
2022/04/12 10:11:19;;;;;;;0.90;0.50;;;18.80;1.00;;;;;;5112861;28;20420;-59
2022/04/12 10:13:48;;;;;;;1.67;0.47;;;18.90;1.00;;;;;;5113003;28;20498;-61
2022/04/12 10:16:16;;;;;;;0.90;0.40;;;18.90;1.00;;;;;;5111955;28;20424;-58
2022/04/12 10:18:44;;;;;;;0.90;0.50;;;19.20;1.00;;;;;;5109483;28;20420;-58
2022/04/12 10:21:12;;;;;;;1.10;0.60;;;19.40;1.00;;;;;;5095868;28;20436;-59
2022/04/12 10:23:42;;;;;;;0.80;0.50;;;19.50;1.00;;;;;;5095913;28;20426;-59
2022/04/12 10:26:11;;;;;;;0.80;0.50;;;19.40;1.00;;;;;;5096341;28;20634;-59
2022/04/12 10:28:39;;;;;;;1.20;0.55;;;19.60;1.00;;;;;;5099361;28;20476;-59
2022/04/12 10:31:25;;;;;;;0.88;0.60;;;19.70;1.00;;;;;;5093739;28;20449;-59
2022/04/12 10:33:53;;;;;;;1.10;0.70;;;20.10;1.00;;;;;;5111309;28;20927;-61
2022/04/12 10:36:20;;;;;;;1.30;0.60;;;20.40;1.00;;;;;;5113574;28;20477;-59
2022/04/12 10:38:47;;;;;;;0.80;0.50;;;20.60;1.00;;;;;;5112454;28;20927;-59
2022/04/12 10:41:29;;;;;;;1.50;0.50;;;20.50;1.00;;;;;;5115025;28;20456;-60
2022/04/12 10:43:57;;;;;;;0.90;0.60;;;20.60;1.00;;;;;;5115027;28;20416;-60
2022/04/12 10:46:45;;;;;;;3.00;1.20;;;20.80;1.00;;;;;;5114339;28;20426;-59
2022/04/12 10:49:13;;;;;;;1.90;0.90;;;20.90;1.00;;;;;;5114388;28;20559;-60
2022/04/12 10:51:40;;;;;;;1.10;0.60;;;20.90;1.00;;;;;;5114544;28;20883;-60
2022/04/12 10:54:27;;;;;;;0.80;0.50;;;20.50;1.00;;;;;;5113756;28;20454;-60
2022/04/12 10:57:22;;;;;;;1.33;0.60;;;20.80;1.00;;;;;;5114341;28;20708;-60
2022/04/12 10:59:51;;;;;;;0.90;0.60;;;21.20;1.00;;;;;;5114292;28;20420;-61
2022/04/12 11:02:20;;;;;;;1.20;0.80;;;21.70;1.00;;;;;;5113067;28;20797;-61
2022/04/12 11:04:47;;;;;;;1.10;0.60;;;21.70;1.00;;;;;;5112930;28;20439;-60
2022/04/12 11:07:32;;;;;;;1.30;0.90;;;21.80;1.00;;;;;;5113850;28;20483;-59
2022/04/12 11:10:29;;;;;;;0.80;0.50;;;21.70;1.00;;;;;;5113098;28;20503;-58
2022/04/12 11:13:07;;;;;;;0.80;0.50;;;21.50;1.00;;;;;;5109468;28;20503;-61
2022/04/12 11:15:36;;;;;;;0.80;0.40;;;21.70;1.00;;;;;;5113859;28;20408;-58
2022/04/12 11:18:12;;;;;;;0.83;0.50;;;21.90;1.00;;;;;;5112533;28;20420;-59
2022/04/12 11:20:41;;;;;;;1.15;0.57;;;22.00;1.00;;;;;;5114489;28;20471;-58
2022/04/12 11:23:11;;;;;;;2.20;0.80;;;21.90;1.00;;;;;;5115414;28;20468;-58
2022/04/12 11:25:48;;;;;;;1.60;0.90;;;21.90;1.00;;;;;;5114301;28;20428;-59
2022/04/12 11:28:17;;;;;;;0.75;0.50;;;21.90;1.00;;;;;;5114723;28;20511;-59
2022/04/12 11:30:54;;;;;;;0.63;0.40;;;21.90;1.00;;;;;;5114638;28;20723;-59
2022/04/12 11:33:26;;;;;;;0.90;0.50;;;22.00;1.00;;;;;;5114510;28;20424;-59
2022/04/12 11:35:53;;;;;;;0.60;0.40;;;22.00;1.00;;;;;;5113880;28;20452;-59
2022/04/12 11:38:22;;;;;;;0.70;0.50;;;21.80;1.00;;;;;;5113257;28;20428;-59
2022/04/12 11:40:49;;;;;;;0.67;0.50;;;21.70;1.00;;;;;;5110619;28;20909;-59
2022/04/12 11:43:24;;;;;;;0.70;0.40;;;21.70;1.00;;;;;;5111543;28;20464;-60
2022/04/12 11:45:55;;;;;;;0.80;0.50;;;21.70;1.00;;;;;;5112425;28;20510;-59
2022/04/12 11:48:22;;;;;;;0.70;0.50;;;21.70;1.00;;;;;;5111589;28;20851;-59
2022/04/12 11:50:54;;;;;;;0.70;0.50;;;21.90;1.00;;;;;;5112384;28;20673;-59
2022/04/12 11:53:22;;;;;;;0.90;0.55;;;22.10;1.00;;;;;;5111997;28;20893;-60
2022/04/12 11:55:49;;;;;;;0.77;0.50;;;22.30;1.00;;;;;;5113795;28;20807;-59
2022/04/12 11:58:16;;;;;;;1.20;0.50;;;22.30;1.00;;;;;;5113715;28;20428;-59
2022/04/12 12:00:43;;;;;;;1.00;0.40;;;22.50;1.00;;;;;;5112877;28;20416;-59
2022/04/12 12:03:17;;;;;;;0.65;0.40;;;22.10;1.00;;;;;;5111894;28;20436;-59
2022/04/12 12:05:44;;;;;;;0.70;0.50;;;22.30;1.00;;;;;;5113534;28;20420;-60
2022/04/12 12:08:18;;;;;;;1.80;0.50;;;22.50;1.00;;;;;;5112980;28;20682;-61
2022/04/12 12:10:45;;;;;;;0.80;0.40;;;22.70;1.00;;;;;;5112507;28;20491;-60
2022/04/12 12:13:13;;;;;;;0.70;0.40;;;22.60;1.00;;;;;;5112623;28;20424;-60
2022/04/12 12:15:40;;;;;;;0.60;0.30;;;22.60;1.00;;;;;;5111530;28;20408;-60
2022/04/12 12:18:08;;;;;;;1.40;0.40;;;22.60;1.00;;;;;;5110591;28;20469;-60
2022/04/12 12:20:37;;;;;;;1.02;0.50;;;22.70;1.00;;;;;;5110610;28;20422;-60
2022/04/12 12:23:05;;;;;;;1.30;0.40;;;22.90;1.00;;;;;;5111458;28;20926;-60
2022/04/12 12:25:39;;;;;;;0.60;0.40;;;23.10;1.00;;;;;;5111961;28;20512;-60
2022/04/12 12:28:14;;;;;;;1.80;1.30;;;23.10;1.00;;;;;;5112066;28;20428;-60
2022/04/12 12:30:42;;;;;;;1.35;1.00;;;23.10;1.00;;;;;;5111747;28;20419;-60
2022/04/12 12:33:10;;;;;;;1.02;0.55;;;23.00;1.00;;;;;;5111774;28;20522;-60
2022/04/12 12:35:41;;;;;;;1.00;0.60;;;23.00;1.00;;;;;;5113421;28;20442;-60
2022/04/12 12:38:10;;;;;;;0.90;0.55;;;22.70;1.00;;;;;;5109561;28;20467;-60
2022/04/12 12:40:40;;;;;;;1.58;0.50;;;22.60;1.00;;;;;;5112331;28;20416;-60
2022/04/12 12:43:09;;;;;;;0.68;0.50;;;22.80;1.00;;;;;;5114079;28;20436;-60
2022/04/12 12:45:38;;;;;;;1.05;0.40;;;22.80;1.00;;;;;;5114340;28;20911;-60
2022/04/12 12:48:08;;;;;;;0.52;0.40;;;22.50;1.00;;;;;;5114968;28;20434;-60
2022/04/12 12:50:38;;;;;;;0.80;0.40;;;22.60;1.00;;;;;;5114991;28;20427;-60
2022/04/12 12:53:07;;;;;;;0.70;0.40;;;22.70;1.00;;;;;;5112700;28;20458;-60
2022/04/12 12:55:36;;;;;;;1.50;1.30;;;22.90;1.00;;;;;;5112791;28;20774;-59
2022/04/12 12:58:07;;;;;;;1.15;0.80;;;23.10;1.00;;;;;;5112330;28;20723;-59
2022/04/12 13:00:34;;;;;;;21.03;13.30;;;23.10;1.00;;;;;;5110817;28;20436;-59
2022/04/12 13:03:03;;;;;;;13.50;9.10;;;23.00;1.00;;;;;;5109884;28;20436;-60
2022/04/12 13:05:30;;;;;;;0.88;0.50;;;23.00;1.00;;;;;;5112367;28;20512;-60
2022/04/12 13:07:59;;;;;;;0.80;0.50;;;22.90;1.00;;;;;;5113604;28;20906;-60